Astin, Texas
Current Conditions -  °F | °C
As of 6:15 PM on Monday 24 Nov 2014 (Local Time) from KLHB Reporting Station
Clear Clear  
Wind Chill: 50°   Ceiling: Unl
Heat Index: 50°   Visibility: 10mi
Dew Point: 36°   Wind: 0mph
Humidity: 60%   Direction: NA
Pressure: 30.1"   Gusts: NA
Location:  30.8324°N, 96.5749°W
Report Text: KLHB 250015Z AUTO 00000KT 10SM CLR 10/02 A3010 RMK AO2 T00980024
Loading
Personal Weather Stations






























Interactive Weather Map New forecast layout! Learn more

10-Day Weather Forecast

Advertisements
Track Severe Weather on mobile